Clt Nom Prénom Naissance Cat Temps Clt/Cat
1 ELMADI Eljazin 1975 Senior 00:41:38.00 1
2 CHOULET Stéphane 1982 Senior 00:42:02.00 2
3 SERROUKH Abdel 1990 Senior 00:42:28.00 3
4 BOURGEOIS Jean-Paul 1965 Vétéran 1 00:43:35.00 1
5 SLAOUI Driss 1964 Vétéran 1 00:44:01.00 2
6 JEU Sebastien 1974 Senior 00:44:28.00 4
7 CAPELLI Anthony 1988 Senior 00:45:45.00 5
8 BECHET Vivien 1987 Senior 00:46:09.00 6
9 HAMMANI Farés 1988 Senior 00:46:46.00 7
10 FILLOD Hervé 1969 Vétéran 1 00:46:48.00 3
11 GRANDPERRIN Dominique 1968 Vétéran 1 00:46:51.00 4
12 BOIVIN Nicolas 1988 Senior 00:47:16.00 8
13 PERRENOUD Alain 1960 Vétéran 2 00:47:33.00 1
14 ODOBEZ Christian 1958 Vétéran 2 00:47:36.00 2
15 CORNEBOIS Jérôme 1971 Vétéran 1 00:47:41.00 5
16 CLERC Jean-Luc 1964 Vétéran 1 00:47:55.00 6
17 BONNET Florian 1988 Senior 00:48:23.00 9
18 KNINECH Bouchaïb 1966 Vétéran 1 00:48:29.00 7
19 BOUVIER Cyril 1971 Vétéran 1 00:48:32.00 8
20 MELET Alain 1971 Vétéran 1 00:48:53.00 9
21 CUBY Yannick 1969 Vétéran 1 00:48:58.00 10
22 JACQUES Vincent 1973 Senior 00:49:10.00 10
23 ARRAGON Eric 1962 Vétéran 1 00:49:23.00 11
24 JOSIEN Christian 1966 Vétéran 1 00:49:26.00 12
25 CALLIER Robert 1955 Vétéran 2 00:49:29.00 2
26 CHENE Jean-Baptiste 1986 Senior 00:49:30.00 11
27 CHAUVIN Samuel 1993 Junior 00:49:34.00 1
28 JOLY Félicien 1986 Senior 00:49:45.00 12
29 CHAUVIN  Alexandre 1978 Senior 00:49:50.00 13
30 JAVOUREZ Laurent 1958 Vétéran 2 00:49:55.00 3
31 ROUSSELIN Marc 1950 Vétéran 3 00:50:08.00 1
32 BOUILLIER Jean-Louis 1960 Vétéran 2 00:50:12.00 4
33 DURAFFOURG Christian 1954 Vétéran 2 00:50:13.00 5
34 FAURE Alain 1949 Vétéran 3 00:50:14.00 2
35 DORNIER Mickael 1987 Senior 00:50:46.00 14
36 HUGON François 1976 Senior 00:51:19.00 15
37 DOLE Marina 1975 Senior 00:51:20.00 1
38 ETIEVANT Aurélien 1986 Senior 00:51:22.00 16
39 GROSPERRIN Marlène 1980 Senior 00:51:28.00 2
40 PEIGNE Anthony 1989 Senior 00:51:37.00 17
41 STALDER Johann 1974 Senior 00:52:04.00 18
42 MOUQUAND David 1973 Senior 00:52:06.00 19
43 LUGAND Michel 1962 Vétéran 1 00:52:10.00 13
44 GRANDPERRIN Sylvie 1968 Vétéran 1 00:52:12.00 1
45 PERRENOUD Isabelle 1961 Vétéran 2 00:52:28.00 1
46 MARGUET Florian 1977 Senior 00:52:40.00 20
47 MINOLETTI Benoît 1986 Senior 00:53:07.00 21
48 INVERNIZZI Yvan 1970 Vétéran 1 00:53:08.00 14
49 RICHARD Jean-Marie 1966 Vétéran 1 00:53:30.00 15
50 VACHERET Bruno 1963 Vétéran 1 00:53:34.00 16
51 PROST Marie-Christine 1960 Vétéran 2 00:53:40.00 2
52 VERGEY Florian 1980 Senior 00:53:41.00 22
53 GINDRE-MOISE Laurence 1965 Vétéran 1 00:53:54.00 2
54 KOZMICK Alain 1954 Vétéran 2 00:54:00.00 6
55 REQUET Claude 1982 Senior 00:54:02.00 23
56 LE TENIER Didier 1964 Vétéran 1 00:54:03.00 17
57 GIRARD Sébastien 1973 Senior 00:54:05.00 24
58 GRANDGIRARD Paul 1963 Vétéran 1 00:54:05.00 18
59 OLIVIER Raphaêl 1972 Senior 00:54:34.00 25
60 SAILLARD Stephane 1972 Senior 00:54:44.00 26
61 SAPPEZ Aurélien 1987 Senior 00:54:50.00 27
62 BARTHET Adrien 1984 Senior 00:54:53.00 28
63 JOLY Lilian 1993 Junior 00:54:54.00 2
64 COURVOISIER Julien 1978 Senior 00:54:55.00 29
65 BRAILLARD Kevin 1993 Junior 00:54:57.00 3
66 GRESSET Fabien 1975 Senior 00:54:58.00 30
67 MATHIEU Daniel 1971 Vétéran 1 00:55:09.00 19
68 BERTIN Christian 1965 Vétéran 1 00:55:10.00 20
69 PERROD Jean-Michel 1960 Vétéran 2 00:55:22.00 7
70 GRESSET Yann 1972 Senior 00:55:29.00 31
71 LACROIX Yvan 1970 Vétéran 1 00:55:31.00 21
72 ECOIFFIER Michel 1958 Vétéran 2 00:55:36.00 8
73 CORNU Bruno 1965 Vétéran 1 00:55:38.00 22
74 SANTOS Manuel 1964 Vétéran 1 00:55:39.00 23
75 QUINTARD Serge 1967 Vétéran 1 00:56:03.00 24
76 ZOLNOWSKI William 1961 Vétéran 2 00:56:04.00 9
77 BORGAZZI Gérard 1952 Vétéran 2 00:56:12.00 10
78 GILAVERT Freddy 1978 Senior 00:56:14.00 32
79 BANDERIER Hubert 1987 Senior 00:56:19.00 33
80 QUEMENER Patrice 1975 Senior 00:56:22.00 34
81 MAUGRAS Patrice 1954 Vétéran 2 00:56:24.00 11
82 DESCHAMPS Michel 1971 Vétéran 1 00:56:25.00 25
83 WULSTECKE Pierre 1992 Junior 00:56:27.00 4
84 DUFOUR Lyliane 1975 Senior 00:56:35.00 3
85 BURLET William 1964 Vétéran 1 00:57:00.00 26
86 BOIVIN Samuel 1984 Senior 00:57:02.00 35
87 GAUTHIER Daniel 1956 Vétéran 2 00:57:10.00 12
88 SCHAFF Christophe 1969 Vétéran 1 00:57:26.00 27
89 PANNIER Karine 1968 Vétéran 1 00:57:52.00 3
90 NEVERS Aymeric 1989 Senior 00:57:55.00 36
91 THOMAS Yannick 1952 Vétéran 2 00:57:58.00 13
92 GIRARDOT Fabrice 1965 Vétéran 1 00:58:10.00 28
93 ZOLNOWSKI Didier 1975 Senior 00:58:11.00 37
94 DAVID Denis 1972 Senior 00:58:36.00 38
95 VALLET Guillaume 1975 Senior 00:58:39.00 39
96 DEYNOUT John 1961 Vétéran 2 00:58:42.00 14
97 LEMOINE Maud 1975 Senior 00:58:54.00 4
98 MILLET Sébastien 1976 Senior 00:58:55.00 40
99 LEGILLE Roland 1952 Vétéran 2 00:58:59.00 15
100 VOISIN Laurence 1966 Vétéran 1 00:59:05.00 4
101 FAIVRE Thierry 1971 Vétéran 1 00:59:06.00 29
102 CAILLER Olivier 1971 Vétéran 1 00:59:12.00 30
103 BARBIER Eric 1967 Vétéran 1 00:59:18.00 31
104 MOINDROT Jean 1963 Vétéran 1 00:59:26.00 32
105 RODOT Sophie 1991 Senior 00:59:28.00 5
106 CLAIRET François 1955 Vétéran 2 00:59:31.00 16
107 FOURNIER Philippe 1970 Vétéran 1 00:59:39.00 33
108 HUSSONG Thierry 1964 Vétéran 1 00:59:41.00 34
109 TISSOT Norbert 1961 Vétéran 2 00:59:45.00 17
110 ZACH Anne-Marie 1960 Vétéran 2 00:59:49.00 1
111 DUBREZ Patrick 1952 Vétéran 2 00:59:50.00 18
112 PAILLARD Sylvain 1974 Senior 00:59:52.00 41
113 CARREZ Céline 1989 Senior 01:00:00.00 6
114 LACROIX Patrick 1962 Vétéran 1 01:00:02.00 35
115 INVERNIZZI Daniel 1965 Vétéran 1 01:00:29.00 36
116 TREUVEY Florent 1968 Vétéran 1 01:00:30.00 37
117 ZACH Jean-Pierre 1958 Vétéran 2 01:00:31.00 19
118 MARCHAND Etienne 1960 Vétéran 2 01:00:46.00 20
119 BOUAMRA Steeve 1972 Senior 01:00:47.00 42
120 COLIN Frédéric 1970 Vétéran 1 01:00:54.00 38
121 JOURNOT Robert 1959 Vétéran 2 01:01:03.00 21
122 PONSOT Sylvie 1971 Vétéran 1 01:01:06.00 5
123 VOINET Bernard 1949 Vétéran 3 01:01:12.00 3
124 MELET Jean-Paul 1949 Vétéran 3 01:01:36.00 4
125 JACQUES Sebastien 1979 Senior 01:01:43.00 43
126 ANDRE Claire 1955 Vétéran 2 01:01:49.00 2
127 FUSARO Henri 1967 Vétéran 1 01:02:03.00 39
128 DUBOZ Michel 1953 Vétéran 2 01:02:05.00 22
129 BERTIN  Thierry 1967 Vétéran 1 01:02:12.00 40
130 PERNIN Eric 1960 Vétéran 2 01:02:21.00 23
131 JUNIAT Eric 1977 Senior 01:02:27.00 44
132 ECOIFFIER Arnaud 1983 Senior 01:02:32.00 45
133 MOREL Jérôme 1975 Senior 01:02:34.00 46
134 JACQUIER François 1964 Vétéran 1 01:02:45.00 41
135 CHAQUET Thierry 1978 Senior 01:03:25.00 47
136 GRESSET Thierry 1979 Senior 01:03:29.00 48
137 BELLE Pierre 1958 Vétéran 2 01:03:41.00 24
138 DODDY Erwan 1981 Senior 01:03:42.00 49
139 DEFOSSE Thierry 1964 Vétéran 1 01:03:51.00 42
140 SALVI Yves 1947 Vétéran 3 01:03:58.00 5
141 HUGONNET Eric 1956 Vétéran 2 01:04:04.00 25
142 DAYON Bruno 1959 Vétéran 2 01:04:08.00 26
143 VIENNET Jean-Michel 1957 Vétéran 2 01:04:14.00 27
144 PEDRO Nicolas 1980 Senior 01:04:17.00 50
145 RIGOLET Franck 1964 Vétéran 1 01:04:48.00 43
146 WERMEILLE Sébastien 1988 Senior 01:04:59.00 51
147 KOEFFER Sylvia 1969 Vétéran 1 01:05:10.00 6
148 PERNOT Pascal 1979 Senior 01:05:12.00 52
149 TONNAIRE  Daniel 1963 Vétéran 1 01:05:22.00 44
150 BURRY Didier 1965 Vétéran 1 01:05:35.00 45
151 DECHARRIERE Olivier 1963 Vétéran 1 01:05:37.00 46
152 VACCA Fernand 1964 Vétéran 1 01:05:38.00 47
153 RUTY Jacques 1958 Vétéran 2 01:05:40.00 28
154 GRAPPEY Michel 1950 Vétéran 3 01:05:42.00 6
155 BELIOT Christian 1964 Vétéran 1 01:05:57.00 48
156 BATAIL Bruno 1969 Vétéran 1 01:06:02.00 49
157 BORDINAT Thierry 1970 Vétéran 1 01:06:07.00 50
158 LACROIX Lucie 1986 Senior 01:06:11.00 7
159 BAILLY SALINS Roland 1945 Vétéran 3 01:06:16.00 7
160 CHANAL François 1959 Vétéran 2 01:06:16.00 29
161 BENOIT LIZON Anna 1980 Senior 01:06:17.00 8
162 CLERC Daniel 1952 Vétéran 2 01:06:18.00 30
163 BAILLY MAITRE Rémy 1964 Vétéran 1 01:06:23.00 51
164 MICHELET Albéric 1984 Senior 01:06:39.00 53
165 LOLLI André 1957 Vétéran 2 01:06:50.00 31
166 MICHEL GROSJEAN Emilie 1982 Senior 01:06:54.00 9
167 VANDELLE Thierry 1962 Vétéran 1 01:06:57.00 52
168 PETETIN Patrick 1964 Vétéran 1 01:07:12.00 53
169 GENTY Marielle 1976 Senior 01:07:21.00 10
170 PETIT-RICHARD Christophe 1969 Vétéran 1 01:07:32.00 54
171 RODOT Anne 1953 Vétéran 2 01:07:40.00 3
172 FAIVRE Claude 1956 Vétéran 2 01:07:42.00 32
173 GUYON Mickael 1980 Senior 01:08:18.00 54
174 GIROD Jacques 1953 Vétéran 2 01:08:52.00 33
175 VACELET Arnaud 1984 Senior 01:09:04.00 55
176 ROZ Francine 1958 Vétéran 2 01:09:13.00 4
177 AGENON Isabelle 1969 Vétéran 1 01:09:28.00 7
178 JAVOUREZ Bertrand 1959 Vétéran 2 01:09:37.00 34
179 GARITO Richard 1960 Vétéran 2 01:09:42.00 35
180 GUYON Cyril 1986 Senior 01:09:49.00 56
181 PERRIER Pierre 1948 Vétéran 3 01:09:52.00 8
182 LEROY Sylvie 1959 Vétéran 2 01:10:25.00 5
183 ANRIOT Virginie 1977 Senior 01:10:41.00 11
184 DALLOZ Marie-Pierre 1975 Senior 01:10:52.00 12
185 REQUET Mathieu 1984 Senior 01:10:56.00 57
186 GUYON GELLIN Jérome 1978 Senior 01:11:16.00 58
187 PONTON Alain 1958 Vétéran 2 01:11:30.00 36
188 MELET Sandra 1973 Senior 01:11:38.00 13
189 JOLY Joêlle 1961 Vétéran 2 01:12:13.00 6
190 GOUACHON Emmanuelle 1963 Vétéran 1 01:12:37.00 8
191 BLONDEAU Jacques 1939 Vétéran 4 01:12:39.00 1
192 MELOT Jean-Marie 1954 Vétéran 2 01:14:44.00 37
193 COMTE Joel 1946 Vétéran 3 01:14:47.00 9
194 PERSONENI Angelo 1931 Vétéran 4 01:15:08.00 2
195 MOUREAU Magalie 1967 Vétéran 1 01:16:23.00 9
196 BLANDIN Marie-Aude 1961 Vétéran 2 01:17:07.00 7
197 RICHARD Sophie 1970 Vétéran 1 01:20:00.00 10
198 BLANCHET Francis 1934 Vétéran 4 01:24:00.00 3
199 GRANDVOINET Annick 1956 Vétéran 2 01:26:00.00 8